createdAt,value
2017-06-11T00:02:05.968Z,2.57
2017-06-11T00:04:32.651Z,2.73
2017-06-11T00:06:59.299Z,2.20
2017-06-11T00:09:25.975Z,2.33
2017-06-11T00:11:52.644Z,2.40
2017-06-11T00:14:19.300Z,2.40
2017-06-11T00:16:45.951Z,2.40
2017-06-11T00:19:12.657Z,2.43
2017-06-11T00:21:39.323Z,2.57
2017-06-11T00:24:05.976Z,2.47
2017-06-11T00:26:32.668Z,2.30
2017-06-11T00:28:59.319Z,2.10
2017-06-11T00:31:25.973Z,2.00
2017-06-11T00:33:52.655Z,1.63
2017-06-11T00:36:19.308Z,2.20
2017-06-11T00:38:46.955Z,2.10
2017-06-11T00:41:13.977Z,2.37
2017-06-11T00:43:40.640Z,1.90
2017-06-11T00:46:07.304Z,2.33
2017-06-11T00:48:33.987Z,2.47
2017-06-11T00:51:00.655Z,2.20
2017-06-11T00:53:27.309Z,2.73
2017-06-11T00:55:53.988Z,2.57
2017-06-11T00:58:20.645Z,2.70
2017-06-11T01:00:47.316Z,2.60
2017-06-11T01:03:14.005Z,2.80
2017-06-11T01:05:40.662Z,2.50
2017-06-11T01:08:07.325Z,2.70
2017-06-11T01:10:34.011Z,2.70
2017-06-11T01:13:00.660Z,2.87
2017-06-11T01:15:27.316Z,3.63
2017-06-11T01:17:54.011Z,3.30
2017-06-11T01:20:20.669Z,3.10
2017-06-11T01:22:47.322Z,2.80
2017-06-11T01:25:14.025Z,2.93
2017-06-11T01:27:40.675Z,3.00
2017-06-11T01:30:07.329Z,2.70
2017-06-11T01:32:34.196Z,2.77
2017-06-11T01:35:00.857Z,3.03
2017-06-11T01:37:27.510Z,3.13
2017-06-11T01:39:54.187Z,3.10
2017-06-11T01:42:20.843Z,3.57
2017-06-11T01:44:47.516Z,3.10
2017-06-11T01:47:14.227Z,3.43
2017-06-11T01:49:40.884Z,3.40
2017-06-11T01:52:07.543Z,3.67
2017-06-11T01:54:34.231Z,3.50
2017-06-11T01:57:00.900Z,3.23
2017-06-11T01:59:27.557Z,3.70
2017-06-11T02:01:54.258Z,3.60
2017-06-11T02:04:20.918Z,3.40
2017-06-11T02:06:47.576Z,3.27
2017-06-11T02:09:14.557Z,3.97
2017-06-11T02:11:41.213Z,3.40
2017-06-11T02:14:07.882Z,3.27
2017-06-11T02:16:34.658Z,3.23
2017-06-11T02:19:01.321Z,3.73
2017-06-11T02:21:28.001Z,3.17
2017-06-11T02:23:54.683Z,3.13
2017-06-11T02:26:21.338Z,3.37
2017-06-11T02:28:48.017Z,3.23
2017-06-11T02:31:14.693Z,2.87
2017-06-11T02:33:41.344Z,3.50
2017-06-11T02:36:08.001Z,3.40
2017-06-11T02:38:34.707Z,2.73
2017-06-11T02:41:01.357Z,2.60
2017-06-11T02:43:28.017Z,3.20
2017-06-11T02:45:54.713Z,2.43
2017-06-11T02:48:21.364Z,2.27
2017-06-11T02:50:48.022Z,2.57
2017-06-11T02:53:14.980Z,3.00
2017-06-11T02:55:41.646Z,2.70
2017-06-11T02:58:08.308Z,3.63
2017-06-11T03:00:34.986Z,3.63
2017-06-11T03:03:01.656Z,3.63
2017-06-11T03:05:28.316Z,3.23
2017-06-11T03:07:55.009Z,3.97
2017-06-11T03:10:21.677Z,3.20
2017-06-11T03:12:48.331Z,3.63
2017-06-11T03:15:15.005Z,3.40
2017-06-11T03:17:41.688Z,3.50
2017-06-11T03:20:08.336Z,3.40
2017-06-11T03:22:35.011Z,3.90
2017-06-11T03:25:01.659Z,3.50
2017-06-11T03:27:28.315Z,3.57
2017-06-11T03:29:54.999Z,3.70
2017-06-11T03:32:21.648Z,3.67
2017-06-11T03:34:48.305Z,3.87
2017-06-11T03:37:14.992Z,3.80
2017-06-11T03:39:41.663Z,3.50
2017-06-11T03:42:08.320Z,3.70
2017-06-11T03:44:35.000Z,4.10
2017-06-11T03:47:01.657Z,4.30
2017-06-11T03:49:28.314Z,3.80
2017-06-11T03:51:54.992Z,3.73
2017-06-11T03:54:21.669Z,4.00
2017-06-11T03:56:48.318Z,4.13
2017-06-11T03:59:15.025Z,4.50
2017-06-11T04:01:41.684Z,5.50
2017-06-11T04:04:08.335Z,3.47
2017-06-11T04:06:35.015Z,3.30
2017-06-11T04:09:01.666Z,3.50
2017-06-11T04:11:28.338Z,3.30
2017-06-11T04:13:55.011Z,3.70
2017-06-11T04:16:21.669Z,3.97
2017-06-11T04:18:48.320Z,3.20
2017-06-11T04:21:15.020Z,3.40
2017-06-11T04:23:41.678Z,3.73
2017-06-11T04:26:08.333Z,3.73
2017-06-11T04:28:35.089Z,3.43
2017-06-11T04:31:01.747Z,3.90
2017-06-11T04:33:28.394Z,3.13
2017-06-11T04:35:55.076Z,3.10
2017-06-11T04:38:21.728Z,3.03
2017-06-11T04:40:48.380Z,3.67
2017-06-11T04:43:15.419Z,3.20
2017-06-11T04:45:42.072Z,3.87
2017-06-11T04:48:08.728Z,3.63
2017-06-11T04:50:35.399Z,3.77
2017-06-11T04:53:02.057Z,3.83
2017-06-11T04:55:28.708Z,3.93
2017-06-11T04:57:55.410Z,3.93
2017-06-11T05:00:22.067Z,3.97
2017-06-11T05:02:48.720Z,3.77
2017-06-11T05:05:15.772Z,3.63
2017-06-11T05:07:42.771Z,3.93
2017-06-11T05:10:09.429Z,3.60
2017-06-11T05:12:36.112Z,3.87
2017-06-11T05:15:02.769Z,3.63
2017-06-11T05:17:29.430Z,3.50
2017-06-11T05:19:56.115Z,3.83
2017-06-11T05:22:22.779Z,3.60
2017-06-11T05:24:49.431Z,3.20
2017-06-11T05:27:16.113Z,4.07
2017-06-11T05:29:42.796Z,3.30
2017-06-11T05:32:09.448Z,3.20
2017-06-11T05:34:36.121Z,3.27
2017-06-11T05:37:02.809Z,3.10
2017-06-11T05:39:29.465Z,3.27
2017-06-11T05:41:56.140Z,4.10
2017-06-11T05:44:22.797Z,3.30
2017-06-11T05:46:49.467Z,3.13
2017-06-11T05:49:16.137Z,3.53
2017-06-11T05:51:42.793Z,3.07
2017-06-11T05:54:09.446Z,2.90
2017-06-11T05:56:36.140Z,2.97
2017-06-11T05:59:02.799Z,3.27
2017-06-11T06:01:29.452Z,2.83
2017-06-11T06:03:56.120Z,3.20
2017-06-11T06:06:22.770Z,2.40
2017-06-11T06:08:49.421Z,2.57
2017-06-11T06:11:16.332Z,2.67
2017-06-11T06:13:42.996Z,2.50
2017-06-11T06:16:09.657Z,2.40
2017-06-11T06:18:36.333Z,2.53
2017-06-11T06:21:02.999Z,2.43
2017-06-11T06:23:29.658Z,2.50
2017-06-11T06:25:56.341Z,2.50
2017-06-11T06:28:22.997Z,2.70
2017-06-11T06:30:49.665Z,2.17
2017-06-11T06:33:16.334Z,2.80
2017-06-11T06:35:42.989Z,2.87
2017-06-11T06:38:09.639Z,3.20
2017-06-11T06:40:36.377Z,2.57
2017-06-11T06:43:03.049Z,2.60
2017-06-11T06:45:29.708Z,3.27
2017-06-11T06:47:56.387Z,3.00
2017-06-11T06:50:23.046Z,2.40
2017-06-11T06:52:49.702Z,2.70
2017-06-11T06:55:16.372Z,2.43
2017-06-11T06:57:43.021Z,2.97
2017-06-11T07:00:10.540Z,2.80
2017-06-11T07:02:37.217Z,3.27
2017-06-11T07:05:03.873Z,2.50
2017-06-11T07:07:30.529Z,2.50
2017-06-11T07:09:57.314Z,2.10
2017-06-11T07:12:23.967Z,3.23
2017-06-11T07:14:50.624Z,2.60
2017-06-11T07:17:17.499Z,2.87
2017-06-11T07:19:44.153Z,3.00
2017-06-11T07:22:10.802Z,2.37
2017-06-11T07:24:37.489Z,2.37
2017-06-11T07:27:04.142Z,2.90
2017-06-11T07:29:30.804Z,2.50
2017-06-11T07:31:57.473Z,2.70
2017-06-11T07:34:24.129Z,2.53
2017-06-11T07:36:50.782Z,2.37
2017-06-11T07:39:17.493Z,2.50
2017-06-11T07:41:44.151Z,2.50
2017-06-11T07:44:10.802Z,2.60
2017-06-11T07:46:37.512Z,2.73
2017-06-11T07:49:04.173Z,2.40
2017-06-11T07:51:30.824Z,2.40
2017-06-11T07:53:57.523Z,2.20
2017-06-11T07:56:24.171Z,2.37
2017-06-11T07:58:50.826Z,2.43
2017-06-11T08:01:17.512Z,2.60
2017-06-11T08:03:44.160Z,2.30
2017-06-11T08:06:10.808Z,2.43
2017-06-11T08:08:37.480Z,2.53
2017-06-11T08:11:04.136Z,2.10
2017-06-11T08:13:30.787Z,2.27
2017-06-11T08:15:57.472Z,2.53
2017-06-11T08:18:24.126Z,2.57
2017-06-11T08:20:50.780Z,2.73
2017-06-11T08:23:17.479Z,2.20
2017-06-11T08:25:44.132Z,2.27
2017-06-11T08:28:10.785Z,2.50
2017-06-11T08:30:37.464Z,2.53
2017-06-11T08:33:04.128Z,2.50
2017-06-11T08:35:30.790Z,2.10
2017-06-11T08:37:57.491Z,2.20
2017-06-11T08:40:24.154Z,2.37
2017-06-11T08:42:51.787Z,2.30
2017-06-11T08:45:18.452Z,2.60
2017-06-11T08:47:45.105Z,2.57
2017-06-11T08:50:11.760Z,2.87
2017-06-11T08:52:38.440Z,2.40
2017-06-11T08:55:05.101Z,2.80
2017-06-11T08:57:31.747Z,2.27
2017-06-11T08:59:58.426Z,2.30
2017-06-11T09:02:25.076Z,2.40
2017-06-11T09:04:51.736Z,2.30
2017-06-11T09:07:18.616Z,2.50
2017-06-11T09:09:45.268Z,2.60
2017-06-11T09:12:11.915Z,2.73
2017-06-11T09:14:38.592Z,2.67
2017-06-11T09:17:05.252Z,2.40
2017-06-11T09:19:31.907Z,2.83
2017-06-11T09:21:58.600Z,2.50
2017-06-11T09:24:25.260Z,2.73
2017-06-11T09:26:51.917Z,2.47
2017-06-11T09:29:18.592Z,2.80
2017-06-11T09:31:45.249Z,2.80
2017-06-11T09:34:11.908Z,2.00
2017-06-11T09:36:38.590Z,2.60
2017-06-11T09:39:05.248Z,2.60
2017-06-11T09:41:31.901Z,2.40
2017-06-11T09:43:58.586Z,2.30
2017-06-11T09:46:25.244Z,2.37
2017-06-11T09:48:51.900Z,2.70
2017-06-11T09:51:18.589Z,2.53
2017-06-11T09:53:45.238Z,2.70
2017-06-11T09:56:11.897Z,2.90
2017-06-11T09:58:38.575Z,2.97
2017-06-11T10:01:05.230Z,2.90
2017-06-11T10:03:32.842Z,3.33
2017-06-11T10:05:59.520Z,2.80
2017-06-11T10:08:26.177Z,2.80
2017-06-11T10:10:52.839Z,3.00
2017-06-11T10:13:19.538Z,2.60
2017-06-11T10:15:46.208Z,3.57
2017-06-11T10:18:12.885Z,2.97
2017-06-11T10:20:39.588Z,2.73
2017-06-11T10:23:06.276Z,2.70
2017-06-11T10:25:32.950Z,2.87
2017-06-11T10:27:59.667Z,2.33
2017-06-11T10:30:26.360Z,2.57
2017-06-11T10:32:54.165Z,2.60
2017-06-11T10:35:20.886Z,2.50
2017-06-11T10:37:47.627Z,2.50
2017-06-11T10:40:14.383Z,2.77
2017-06-11T10:42:41.339Z,3.10
2017-06-11T10:45:08.060Z,2.57
2017-06-11T10:47:34.787Z,2.67
2017-06-11T10:50:01.493Z,2.60
2017-06-11T10:52:28.175Z,2.87
2017-06-11T10:54:54.885Z,2.80
2017-06-11T10:57:21.763Z,2.80
2017-06-11T10:59:48.444Z,3.00
2017-06-11T11:02:15.119Z,3.07
2017-06-11T11:04:41.856Z,3.00
2017-06-11T11:07:08.693Z,2.80
2017-06-11T11:09:35.770Z,2.97
2017-06-11T11:12:02.793Z,2.93
2017-06-11T11:14:30.029Z,2.83
2017-06-11T11:16:56.953Z,2.90
2017-06-11T11:19:23.814Z,2.90
2017-06-11T11:21:51.669Z,3.00
2017-06-11T11:24:18.449Z,3.00
2017-06-11T11:26:45.145Z,2.90
2017-06-11T11:29:11.827Z,2.87
2017-06-11T11:31:38.528Z,2.57
2017-06-11T11:34:05.210Z,2.70
2017-06-11T11:36:31.890Z,2.20
2017-06-11T11:38:58.591Z,2.30
2017-06-11T11:41:25.303Z,2.40
2017-06-11T11:43:51.971Z,2.17
2017-06-11T11:46:18.677Z,2.13
2017-06-11T11:48:45.357Z,2.00
2017-06-11T11:51:12.037Z,1.73
2017-06-11T11:53:38.707Z,1.90
2017-06-11T11:56:05.403Z,1.97
2017-06-11T11:58:32.132Z,2.27
2017-06-11T12:00:58.825Z,1.80
2017-06-11T12:03:25.552Z,1.70
2017-06-11T12:05:52.237Z,1.60
2017-06-11T12:08:18.926Z,1.57
2017-06-11T12:10:45.623Z,1.50
2017-06-11T12:13:12.337Z,1.93
2017-06-11T12:15:39.018Z,2.23
2017-06-11T12:18:05.755Z,1.80
2017-06-11T12:20:32.465Z,1.70
2017-06-11T12:22:59.265Z,1.80
2017-06-11T12:25:26.176Z,1.90
2017-06-11T12:27:52.869Z,1.77
2017-06-11T12:30:19.591Z,1.63
2017-06-11T12:32:46.287Z,1.80
2017-06-11T12:35:12.960Z,1.70
2017-06-11T12:37:39.640Z,1.57
2017-06-11T12:40:06.305Z,1.90
2017-06-11T12:42:32.984Z,1.90
2017-06-11T12:44:59.676Z,1.80
2017-06-11T12:47:26.383Z,1.83
2017-06-11T12:49:53.146Z,1.90
2017-06-11T12:52:19.872Z,2.00
2017-06-11T12:54:46.624Z,1.70
2017-06-11T12:57:13.324Z,1.93
2017-06-11T12:59:40.380Z,1.50
2017-06-11T13:02:07.144Z,2.20
2017-06-11T13:04:33.841Z,1.53
2017-06-11T13:07:00.511Z,2.40
2017-06-11T13:09:27.573Z,1.70
2017-06-11T13:11:54.279Z,1.90
2017-06-11T13:14:20.958Z,1.70
2017-06-11T13:16:47.621Z,1.83
2017-06-11T13:19:14.278Z,2.30
2017-06-11T13:21:41.057Z,2.20
2017-06-11T13:24:07.727Z,2.50
2017-06-11T13:26:34.382Z,2.20
2017-06-11T13:29:01.164Z,2.30
2017-06-11T13:31:27.837Z,2.30
2017-06-11T13:33:54.525Z,2.50
2017-06-11T13:36:21.195Z,2.60
2017-06-11T13:38:47.868Z,2.80
2017-06-11T13:41:14.728Z,3.00
2017-06-11T13:43:41.409Z,2.80
2017-06-11T13:46:08.128Z,3.20
2017-06-11T13:48:34.851Z,3.00
2017-06-11T13:51:01.520Z,3.33
2017-06-11T13:53:28.172Z,2.87
2017-06-11T13:55:55.148Z,3.13
2017-06-11T13:58:21.828Z,4.03
2017-06-11T14:00:48.547Z,3.60
2017-06-11T14:03:15.242Z,3.37
2017-06-11T14:05:41.923Z,3.33
2017-06-11T14:08:09.958Z,2.73
2017-06-11T14:10:36.673Z,3.07
2017-06-11T14:13:03.367Z,2.93
2017-06-11T14:15:30.025Z,3.00
2017-06-11T14:17:56.820Z,3.03
2017-06-11T14:20:23.482Z,3.10
2017-06-11T14:22:50.137Z,3.37
2017-06-11T14:25:16.862Z,3.03
2017-06-11T14:27:43.519Z,3.30
2017-06-11T14:30:15.902Z,3.03
2017-06-11T14:32:42.604Z,3.10
2017-06-11T14:35:09.254Z,3.50
2017-06-11T14:37:35.934Z,2.80
2017-06-11T14:40:02.617Z,2.80
2017-06-11T14:42:29.291Z,3.13
2017-06-11T14:44:55.942Z,2.90
2017-06-11T14:47:22.614Z,2.90
2017-06-11T14:49:49.315Z,2.73
2017-06-11T14:52:16.052Z,3.10
2017-06-11T14:54:42.722Z,2.90
2017-06-11T14:57:09.413Z,2.40
2017-06-11T14:59:36.127Z,2.80
2017-06-11T15:02:02.799Z,3.07
2017-06-11T15:04:30.534Z,2.70
2017-06-11T15:06:57.218Z,2.30
2017-06-11T15:09:23.904Z,2.30
2017-06-11T15:11:50.588Z,2.40
2017-06-11T15:14:17.285Z,2.20
2017-06-11T15:16:43.959Z,2.43
2017-06-11T15:19:10.636Z,2.17
2017-06-11T15:21:37.351Z,2.20
2017-06-11T15:24:04.080Z,2.27
2017-06-11T15:26:30.750Z,2.10
2017-06-11T15:28:57.446Z,2.00
2017-06-11T15:31:24.129Z,2.30
2017-06-11T15:33:50.871Z,2.10
2017-06-11T15:36:17.669Z,2.13
2017-06-11T15:38:44.353Z,2.53
2017-06-11T15:41:11.055Z,2.07
2017-06-11T15:43:37.753Z,2.00
2017-06-11T15:46:04.433Z,2.20
2017-06-11T15:48:31.110Z,2.40
2017-06-11T15:50:57.828Z,2.10
2017-06-11T15:53:24.676Z,2.10
2017-06-11T15:55:51.412Z,2.37
2017-06-11T15:58:18.123Z,2.15
2017-06-11T16:00:44.793Z,1.90
2017-06-11T16:03:11.472Z,2.37
2017-06-11T16:05:38.151Z,1.90
2017-06-11T16:08:04.827Z,2.30
2017-06-11T16:10:31.547Z,2.10
2017-06-11T16:12:58.223Z,2.07
2017-06-11T16:15:24.918Z,2.40
2017-06-11T16:17:51.595Z,2.40
2017-06-11T16:20:18.249Z,2.43
2017-06-11T16:22:44.946Z,2.50
2017-06-11T16:25:11.623Z,2.30
2017-06-11T16:27:38.281Z,2.10
2017-06-11T16:30:04.977Z,2.27
2017-06-11T16:32:31.642Z,2.20
2017-06-11T16:34:58.334Z,2.47
2017-06-11T16:37:25.017Z,2.17
2017-06-11T16:39:51.724Z,2.63
2017-06-11T16:42:18.394Z,1.90
2017-06-11T16:44:45.079Z,2.30
2017-06-11T16:47:11.730Z,2.50
2017-06-11T16:49:38.409Z,2.30
2017-06-11T16:52:05.065Z,2.47
2017-06-11T16:54:31.721Z,2.40
2017-06-11T16:56:58.398Z,2.90
2017-06-11T16:59:25.062Z,2.93
2017-06-11T17:01:51.715Z,2.70
2017-06-11T17:04:18.396Z,2.50
2017-06-11T17:06:45.051Z,2.70
2017-06-11T17:09:11.729Z,2.50
2017-06-11T17:11:38.416Z,2.40
2017-06-11T17:14:05.072Z,2.90
2017-06-11T17:16:31.735Z,3.20
2017-06-11T17:18:58.418Z,3.27
2017-06-11T17:21:25.068Z,3.10
2017-06-11T17:23:51.749Z,5.13
2017-06-11T17:26:18.437Z,4.13
2017-06-11T17:28:45.090Z,3.50
2017-06-11T17:31:11.774Z,4.33
2017-06-11T17:33:38.462Z,3.53
2017-06-11T17:36:05.112Z,3.37
2017-06-11T17:38:31.829Z,4.20
2017-06-11T17:40:58.488Z,4.00
2017-06-11T17:43:25.192Z,3.90
2017-06-11T17:45:51.875Z,3.90
2017-06-11T17:48:18.559Z,4.37
2017-06-11T17:50:45.210Z,4.13
2017-06-11T17:53:11.918Z,3.80
2017-06-11T17:55:38.567Z,4.10
2017-06-11T17:58:05.252Z,4.37
2017-06-11T18:00:31.900Z,4.00
2017-06-11T18:02:58.707Z,4.57
2017-06-11T18:05:25.360Z,4.00
2017-06-11T18:07:52.040Z,3.67
2017-06-11T18:10:18.694Z,4.40
2017-06-11T18:12:45.451Z,3.83
2017-06-11T18:15:12.111Z,4.00
2017-06-11T18:17:38.771Z,4.70
2017-06-11T18:20:05.443Z,4.00
2017-06-11T18:22:32.136Z,4.00
2017-06-11T18:24:58.820Z,3.90
2017-06-11T18:27:25.471Z,4.17
2017-06-11T18:29:52.178Z,4.20
2017-06-11T18:32:19.128Z,3.80
2017-06-11T18:34:45.787Z,4.07
2017-06-11T18:37:12.452Z,3.80
2017-06-11T18:39:39.102Z,4.20
2017-06-11T18:42:05.991Z,4.10
2017-06-11T18:44:32.648Z,4.10
2017-06-11T18:46:59.357Z,5.30
2017-06-11T18:49:26.017Z,4.43
2017-06-11T18:51:52.667Z,3.43
2017-06-11T18:54:19.359Z,4.20
2017-06-11T18:56:46.054Z,4.20
2017-06-11T18:59:12.710Z,4.23
2017-06-11T19:01:39.360Z,5.20
2017-06-11T19:04:06.039Z,5.30
2017-06-11T19:06:32.697Z,4.40
2017-06-11T19:08:59.348Z,4.23
2017-06-11T19:11:26.042Z,5.70
2017-06-11T19:13:52.725Z,4.97
2017-06-11T19:16:19.378Z,4.20
2017-06-11T19:18:46.364Z,4.07
2017-06-11T19:21:13.025Z,4.00
2017-06-11T19:23:39.711Z,4.60
2017-06-11T19:26:06.363Z,3.97
2017-06-11T19:28:33.012Z,4.60
2017-06-11T19:30:59.709Z,4.13
2017-06-11T19:33:26.369Z,3.87
2017-06-11T19:35:53.021Z,4.50
2017-06-11T19:38:19.720Z,4.43
2017-06-11T19:40:46.370Z,3.67
2017-06-11T19:43:13.052Z,4.10
2017-06-11T19:45:39.724Z,4.13
2017-06-11T19:48:06.376Z,4.50
2017-06-11T19:50:33.043Z,3.97
2017-06-11T19:52:59.703Z,4.43
2017-06-11T19:55:26.372Z,3.90
2017-06-11T19:57:53.065Z,4.40
2017-06-11T20:00:19.815Z,4.23
2017-06-11T20:02:46.510Z,4.07
2017-06-11T20:05:13.221Z,4.30
2017-06-11T20:07:39.901Z,5.47
2017-06-11T20:10:06.580Z,3.70
2017-06-11T20:12:33.527Z,4.07
2017-06-11T20:15:00.204Z,3.57
2017-06-11T20:17:26.899Z,4.00
2017-06-11T20:19:53.591Z,3.70
2017-06-11T20:22:20.270Z,3.80
2017-06-11T20:24:47.061Z,4.57
2017-06-11T20:27:13.736Z,3.60
2017-06-11T20:29:41.247Z,4.03
2017-06-11T20:32:07.913Z,3.80
2017-06-11T20:34:34.635Z,4.27
2017-06-11T20:37:01.328Z,3.83
2017-06-11T20:39:28.024Z,4.23
2017-06-11T20:41:54.704Z,3.73
2017-06-11T20:44:21.594Z,4.20
2017-06-11T20:46:48.328Z,3.73
2017-06-11T20:49:15.004Z,3.90
2017-06-11T20:51:41.688Z,4.73
2017-06-11T20:54:08.621Z,4.87
2017-06-11T20:56:35.288Z,4.90
2017-06-11T20:59:01.953Z,4.73
2017-06-11T21:01:28.624Z,4.60
2017-06-11T21:03:55.303Z,5.00
2017-06-11T21:06:22.162Z,4.73
2017-06-11T21:08:48.953Z,4.43
2017-06-11T21:11:15.624Z,4.33
2017-06-11T21:13:42.303Z,4.60
2017-06-11T21:16:08.986Z,4.70
2017-06-11T21:18:35.673Z,4.60
2017-06-11T21:21:02.338Z,4.83
2017-06-11T21:23:29.035Z,4.30
2017-06-11T21:25:55.708Z,4.27
2017-06-11T21:28:22.389Z,4.50
2017-06-11T21:30:49.059Z,5.07
2017-06-11T21:33:15.733Z,4.17
2017-06-11T21:35:42.471Z,4.67
2017-06-11T21:38:09.293Z,4.20
2017-06-11T21:40:36.090Z,4.70
2017-06-11T21:43:02.859Z,4.13
2017-06-11T21:45:29.794Z,3.90
2017-06-11T21:47:56.515Z,4.40
2017-06-11T21:50:23.748Z,4.73
2017-06-11T21:52:50.441Z,4.93
2017-06-11T21:55:17.097Z,5.70
2017-06-11T21:57:43.817Z,5.13
2017-06-11T22:00:10.498Z,5.10
2017-06-11T22:02:37.185Z,4.60
2017-06-11T22:05:03.871Z,5.33
2017-06-11T22:07:30.571Z,4.40
2017-06-11T22:09:57.255Z,5.10
2017-06-11T22:12:23.921Z,4.70
2017-06-11T22:14:50.603Z,4.53
2017-06-11T22:17:17.257Z,3.97
2017-06-11T22:19:43.909Z,5.10
2017-06-11T22:22:10.616Z,4.37
2017-06-11T22:24:37.269Z,4.73
2017-06-11T22:27:03.951Z,5.70
2017-06-11T22:29:30.608Z,4.80
2017-06-11T22:31:57.268Z,5.87
2017-06-11T22:34:23.957Z,5.03
2017-06-11T22:36:50.610Z,5.30
2017-06-11T22:39:17.265Z,5.60
2017-06-11T22:41:43.939Z,5.40
2017-06-11T22:44:10.584Z,5.40
2017-06-11T22:46:37.237Z,5.67
2017-06-11T22:49:03.931Z,5.90
2017-06-11T22:51:30.597Z,5.13
2017-06-11T22:53:57.260Z,4.90
2017-06-11T22:56:23.943Z,5.27
2017-06-11T22:58:50.598Z,4.90
2017-06-11T23:01:17.251Z,5.20
2017-06-11T23:03:43.936Z,4.90
2017-06-11T23:06:10.592Z,5.13
2017-06-11T23:08:37.243Z,5.20
2017-06-11T23:11:03.932Z,5.90
2017-06-11T23:13:30.585Z,5.50
2017-06-11T23:15:57.240Z,6.10
2017-06-11T23:18:23.938Z,6.70
2017-06-11T23:20:50.618Z,5.83
2017-06-11T23:23:17.352Z,6.33
2017-06-11T23:25:44.032Z,5.80
2017-06-11T23:28:10.691Z,5.80
2017-06-11T23:30:37.356Z,6.00
2017-06-11T23:33:04.029Z,5.90
2017-06-11T23:35:30.683Z,4.70
2017-06-11T23:37:57.327Z,5.40
2017-06-11T23:40:23.996Z,4.47
2017-06-11T23:42:50.647Z,4.70
2017-06-11T23:45:17.300Z,3.87
2017-06-11T23:47:43.976Z,5.00
2017-06-11T23:50:10.622Z,4.33
2017-06-11T23:52:37.280Z,4.20
2017-06-11T23:55:03.969Z,4.90
2017-06-11T23:57:30.620Z,5.63
2017-06-11T23:59:57.316Z,5.60
